Flight Track Log - Related Links

Times and Time Zones

All times are in EDT time to prevent confusion due to time zone crossing. See the FLG4034 flight status page for this flight to view local times or setup timezone preferences in your user account.

Time Position Orientation Groundspeed Altitude Reporting Facility
EDT Latitude Longitude Course Direction KTS MPH feet Rate Location/Type
Sun 10:22:40 AM 42.2314 -83.3314 94° East 154 177 1,200  Level Cleveland Center
Sun 10:23:29 AM 42.2675 -83.3050 28° Northeast 203 234 2,400 1,730 Climbing Cleveland Center
Sun 10:24:31 AM 42.3144 -83.2564 37° Northeast 239 275 4,400 2,063 Climbing Cleveland Center
Sun 10:25:37 AM 42.3394 -83.1647 70° East 282 325 6,800 2,132 Climbing Cleveland Center
Sun 10:26:00 AM 42.3223 -82.6943 82° East  Level FlightAware Approximate
Sun 10:26:32 AM 42.3231 -83.0631 102° East 293 337 8,700  Level Cleveland Center
Sun 10:27:00 AM 42.3469 -82.5289 71° East  Level FlightAware Approximate
Sun 10:27:32 AM 42.3044 -82.9500 103° East 311 358 10,600  Level Cleveland Center
Sun 10:28:00 AM 42.3648 -82.3671 94° East  Level FlightAware Approximate
Sun 10:28:32 AM 42.3050 -82.8208 90° East 356 410 11,900  Level Cleveland Center
Sun 10:29:32 AM 42.3283 -82.6867 77° East 356 410 13,600 1,550 Climbing Cleveland Center
Sun 10:30:32 AM 42.3494 -82.5525 78° East 356 410 15,000 1,250 Climbing Cleveland Center
Sun 10:31:32 AM 42.3644 -82.4069 82° East 374 430 16,100 1,100 Climbing Cleveland Center
Sun 10:32:32 AM 42.3606 -82.2578 92° East 380 437 17,200 950 Climbing Cleveland Center
Sun 10:33:32 AM 42.3542 -82.1031 93° East 399 459 18,000 900 Climbing Cleveland Center
Sun 10:34:32 AM 42.3458 -81.9428 94° East 418 481 19,000 850 Climbing Cleveland Center
Sun 10:35:32 AM 42.3394 -81.7797 93° East 424 488 19,700 750 Climbing Cleveland Center
Sun 10:36:32 AM 42.3325 -81.6167 93° East 431 496 20,500 800 Climbing Cleveland Center
Sun 10:37:32 AM 42.3256 -81.4508 93° East 439 505 21,300 750 Climbing Cleveland Center
Sun 10:38:32 AM 42.3164 -81.2794 94° East 448 516 22,000 650 Climbing Cleveland Center
Sun 10:39:32 AM 42.3069 -81.1081 94° East 453 521 22,600 550 Climbing Cleveland Center
Sun 10:40:32 AM 42.2972 -80.9342 94° East 465 535 23,100 500 Climbing Cleveland Center
Sun 10:41:32 AM 42.2892 -80.7769 94° East 465 535 23,600 500 Climbing Cleveland Center
Sun 10:42:32 AM 42.2789 -80.6000 94° East 465 535 24,100 500 Climbing Cleveland Center
Sun 10:43:32 AM 42.2706 -80.4233 94° East 465 535 24,600 500 Climbing Cleveland Center
Sun 10:44:32 AM 42.2617 -80.2408 94° East 475 547 25,100 500 Climbing Cleveland Center
Sun 10:45:32 AM 42.2506 -80.0586 95° East 480 552 25,600 500 Climbing Cleveland Center
Sun 10:46:32 AM 42.2392 -79.8792 95° East 480 552 26,100 500 Climbing Cleveland Center
Sun 10:47:32 AM 42.2275 -79.7000 95° East 480 552 26,600 450 Climbing Cleveland Center
Sun 10:48:32 AM 42.2156 -79.5178 95° East 480 552 27,000 200 Climbing Cleveland Center
Sun 10:49:32 AM 42.2033 -79.3358 95° East 480 552 27,000  Level Cleveland Center
Sun 10:50:32 AM 42.1908 -79.1539 95° East 480 552 27,000  Level Cleveland Center
Sun 10:51:32 AM 42.2072 -78.9714 83° East 480 552 27,000  Level Cleveland Center
Sun 10:52:32 AM 42.2336 -78.7883 79° East 480 552 27,000  Level Cleveland Center
Sun 10:53:32 AM 42.2556 -78.6056 81° East 485 558 27,000  Level Cleveland Center
Sun 10:54:32 AM 42.2772 -78.4194 81° East 485 558 27,000  Level Cleveland Center
Sun 10:55:32 AM 42.3008 -78.2389 80° East 485 558 27,000  Level Cleveland Center
Sun 10:56:32 AM 42.3219 -78.0556 81° East 485 558 27,000  Level Cleveland Center
Sun 10:57:32 AM 42.3447 -77.8664 81° East 485 558 27,000  Level Cleveland Center
Sun 10:58:32 AM 42.3653 -77.6800 81° East 485 558 27,000  Level Cleveland Center
Sun 10:59:32 AM 42.3914 -77.4764 80° East 485 558 27,000  Level Cleveland Center
Sun 11:01:20 AM 42.4281 -77.1411 81° East 502 578 27,000  Level Boston Center
Sun 11:02:20 AM 42.4483 -76.9514 82° East 502 578 27,000  Level Boston Center
Sun 11:03:20 AM 42.4681 -76.7639 82° East 502 578 27,000  Level Boston Center
Sun 11:04:20 AM 42.4897 -76.5739 81° East 502 578 27,000  Level Boston Center
Sun 11:05:20 AM 42.5089 -76.3864 82° East 502 578 27,000  Level Boston Center
Sun 11:06:20 AM 42.5272 -76.2156 82° East 502 578 27,000  Level Boston Center
Sun 11:07:20 AM 42.5458 -76.0281 82° East 502 578 27,000  Level Boston Center
Sun 11:08:20 AM 42.5642 -75.8372 83° East 502 578 27,000  Level Boston Center
Sun 11:09:20 AM 42.5822 -75.6492 83° East 502 578 27,000  Level Boston Center
Sun 11:10:20 AM 42.5997 -75.4667 83° East 497 572 27,000  Level Boston Center
Sun 11:11:20 AM 42.6172 -75.2758 83° East 503 579 27,000  Level Boston Center
Sun 11:12:20 AM 42.6361 -75.0931 82° East 503 579 27,000  Level Boston Center
Sun 11:13:20 AM 42.6508 -74.9075 84° East 498 573 27,000  Level Boston Center
Sun 11:14:20 AM 42.6697 -74.6992 83° East 498 573 27,000  Level Boston Center
Sun 11:15:20 AM 42.6858 -74.5161 83° East 498 573 27,000 -300 Level Boston Center
Sun 11:16:20 AM 42.7014 -74.3331 83° East 498 573 26,400 -800 Descending Boston Center
Sun 11:17:20 AM 42.7189 -74.1442 83° East 498 573 25,400 -909 Descending Boston Center
Sun 11:18:32 AM 42.7319 -73.9608 84° East 498 573 24,400 -864 Descending Boston Center
Sun 11:19:32 AM 42.7514 -73.7408 83° East 493 567 23,500 -900 Descending Boston Center
Sun 11:20:32 AM 42.7572 -73.5825 87° East 481 554 22,600 -950 Descending Boston Center
Sun 11:21:32 AM 42.7631 -73.4044 87° East 481 554 21,600 -1,000 Descending Boston Center
Sun 11:22:32 AM 42.7708 -73.2319 86° East 470 541 20,600 -1,050 Descending Boston Center
Sun 11:23:32 AM 42.7739 -73.0625 89° East 453 521 19,500 -800 Descending Boston Center
Sun 11:24:32 AM 42.7808 -72.8869 87° East 440 506 19,000 -650 Descending Boston Center
Sun 11:25:32 AM 42.7836 -72.7286 89° East 424 488 18,200 -1,450 Descending Boston Center
Sun 11:26:32 AM 42.7881 -72.5731 88° East 412 474 16,100 -2,050 Descending Boston Center
Sun 11:27:32 AM 42.7922 -72.4175 88° East 406 467 14,100 -2,000 Descending Boston Center
Sun 11:28:32 AM 42.7964 -72.2789 88° East 385 443 12,100 -1,900 Descending Boston Center
Sun 11:29:32 AM 42.8003 -72.1628 87° East 352 405 10,300 -1,400 Descending Boston Center
Sun 11:30:32 AM 42.7956 -72.0328 93° East 319 367 9,300 -1,150 Descending Boston Center
Sun 11:31:32 AM 42.7911 -71.9281 93° East 305 351 8,000 -1,600 Descending Boston Center
Sun 11:32:32 AM 42.7842 -71.8036 94° East 305 351 6,100 -1,450 Descending Boston Center
Sun 11:33:32 AM 42.7817 -71.7131 92° East 281 323 5,100 -1,000 Descending Boston Center

Login

Don't have an account? Register now (free) for customized features, flight alerts, and more!